createdAt,value
2023-02-28T00:01:34.248Z,101130.13
2023-02-28T00:04:01.451Z,101126.28
2023-02-28T00:06:28.854Z,101131.19
2023-02-28T00:08:55.900Z,101128.06
2023-02-28T00:11:24.354Z,101122.53
2023-02-28T00:13:51.677Z,101124.72
2023-02-28T00:16:22.918Z,101128.00
2023-02-28T00:18:50.893Z,101132.22
2023-02-28T00:21:19.009Z,101137.69
2023-02-28T00:23:46.111Z,101129.59
2023-02-28T00:26:13.461Z,101140.69
2023-02-28T00:28:40.375Z,101142.66
2023-02-28T00:31:07.472Z,101134.94
2023-02-28T00:33:34.417Z,101135.66
2023-02-28T00:36:10.653Z,101142.97
2023-02-28T00:38:39.523Z,101149.13
2023-02-28T00:41:07.418Z,101140.06
2023-02-28T00:43:37.342Z,101149.84
2023-02-28T00:46:06.328Z,101143.41
2023-02-28T00:48:33.782Z,101147.03
2023-02-28T00:51:01.248Z,101151.56
2023-02-28T00:53:28.296Z,101149.44
2023-02-28T00:55:55.239Z,101152.28
2023-02-28T00:58:22.306Z,101144.53
2023-02-28T01:00:50.139Z,101149.44
2023-02-28T01:03:19.700Z,101153.56
2023-02-28T01:05:47.602Z,101157.63
2023-02-28T01:08:15.813Z,101157.28
2023-02-28T01:10:43.631Z,101165.44
2023-02-28T01:13:11.223Z,101160.56
2023-02-28T01:15:51.324Z,101167.59
2023-02-28T01:18:18.957Z,101162.22
2023-02-28T01:20:47.132Z,101162.28
2023-02-28T01:23:14.111Z,101172.88
2023-02-28T01:25:41.509Z,101167.94
2023-02-28T01:28:08.465Z,101162.22
2023-02-28T01:30:35.815Z,101172.34
2023-02-28T01:33:03.851Z,101172.66
2023-02-28T01:35:34.927Z,101174.59
2023-02-28T01:38:15.733Z,101167.00
2023-02-28T01:40:47.660Z,101169.25
2023-02-28T01:43:28.396Z,101169.66
2023-02-28T01:45:57.745Z,101163.78
2023-02-28T01:48:35.592Z,101169.75
2023-02-28T01:51:11.269Z,101164.47
2023-02-28T01:53:52.510Z,101169.16
2023-02-28T01:56:25.497Z,101171.91
2023-02-28T01:58:54.276Z,101173.94
2023-02-28T02:01:27.846Z,101174.00
2023-02-28T02:04:02.709Z,101172.59
2023-02-28T02:06:45.686Z,101169.22
2023-02-28T02:09:13.389Z,101164.38
2023-02-28T02:11:43.848Z,101169.66
2023-02-28T02:14:42.932Z,101172.91
2023-02-28T02:17:40.929Z,101176.50
2023-02-28T02:20:44.891Z,101174.56
2023-02-28T02:23:36.690Z,101172.44
2023-02-28T02:26:40.997Z,101180.22
2023-02-28T02:29:32.319Z,101181.06
2023-02-28T02:32:21.825Z,101175.13
2023-02-28T02:35:13.736Z,101172.91
2023-02-28T02:38:14.645Z,101180.03
2023-02-28T02:41:11.678Z,101179.63
2023-02-28T02:44:19.749Z,101178.47
2023-02-28T02:46:48.656Z,101182.03
2023-02-28T02:49:29.762Z,101173.19
2023-02-28T02:51:59.306Z,101181.44
2023-02-28T02:54:31.638Z,101180.66
2023-02-28T02:57:05.009Z,101179.69
2023-02-28T02:59:33.321Z,101182.41
2023-02-28T03:02:05.598Z,101180.94
2023-02-28T03:04:41.606Z,101179.41
2023-02-28T03:07:08.667Z,101185.84
2023-02-28T03:09:39.544Z,101180.44
2023-02-28T03:12:13.189Z,101195.63
2023-02-28T03:15:11.091Z,101202.03
2023-02-28T03:18:31.718Z,101196.47
2023-02-28T03:21:34.232Z,101195.69
2023-02-28T03:24:38.194Z,101198.09
2023-02-28T03:27:30.977Z,101192.16
2023-02-28T03:30:25.304Z,101185.25
2023-02-28T03:33:07.598Z,101183.63
2023-02-28T03:35:41.724Z,101183.69
2023-02-28T03:38:32.996Z,101189.72
2023-02-28T03:41:23.470Z,101182.66
2023-02-28T03:44:26.842Z,101183.53
2023-02-28T03:47:25.358Z,101185.31
2023-02-28T03:50:05.102Z,101180.44
2023-02-28T03:52:36.535Z,101183.78
2023-02-28T03:55:11.509Z,101181.69
2023-02-28T03:58:03.034Z,101187.47
2023-02-28T04:00:39.654Z,101187.94
2023-02-28T04:03:07.082Z,101196.00
2023-02-28T04:05:49.776Z,101184.16
2023-02-28T04:08:16.800Z,101187.09
2023-02-28T04:10:51.909Z,101192.16
2023-02-28T04:13:18.867Z,101200.84
2023-02-28T04:15:45.855Z,101196.59
2023-02-28T04:18:12.872Z,101198.81
2023-02-28T04:20:39.899Z,101191.22
2023-02-28T04:23:06.787Z,101190.72
2023-02-28T04:25:33.700Z,101184.06
2023-02-28T04:28:01.650Z,101185.63
2023-02-28T04:30:28.670Z,101185.50
2023-02-28T04:32:55.536Z,101186.34
2023-02-28T04:35:22.502Z,101187.72
2023-02-28T04:37:49.394Z,101188.19
2023-02-28T04:40:16.640Z,101178.06
2023-02-28T04:42:43.574Z,101184.44
2023-02-28T04:45:11.259Z,101180.13
2023-02-28T04:47:38.352Z,101187.75
2023-02-28T04:50:05.914Z,101184.56
2023-02-28T04:52:32.913Z,101185.16
2023-02-28T04:54:59.805Z,101184.34
2023-02-28T04:57:26.800Z,101181.88
2023-02-28T04:59:54.114Z,101193.50
2023-02-28T05:02:22.143Z,101186.50
2023-02-28T05:04:49.162Z,101188.50
2023-02-28T05:07:17.175Z,101188.72
2023-02-28T05:09:44.161Z,101193.41
2023-02-28T05:12:11.419Z,101196.09
2023-02-28T05:14:38.343Z,101191.50
2023-02-28T05:17:05.277Z,101190.41
2023-02-28T05:19:32.155Z,101189.63
2023-02-28T05:21:59.230Z,101193.06
2023-02-28T05:24:26.323Z,101202.25
2023-02-28T05:26:55.528Z,101207.00
2023-02-28T05:29:23.109Z,101213.88
2023-02-28T05:31:50.349Z,101204.69
2023-02-28T05:34:17.438Z,101213.31
2023-02-28T05:36:44.456Z,101212.88
2023-02-28T05:39:13.697Z,101218.91
2023-02-28T05:41:42.824Z,101215.72
2023-02-28T05:44:10.573Z,101212.47
2023-02-28T05:46:37.545Z,101219.09
2023-02-28T05:49:04.740Z,101212.47
2023-02-28T05:51:32.030Z,101217.84
2023-02-28T05:54:03.572Z,101215.56
2023-02-28T05:56:30.801Z,101220.22
2023-02-28T05:58:57.943Z,101215.22
2023-02-28T06:01:32.576Z,101221.34
2023-02-28T06:04:01.638Z,101208.53
2023-02-28T06:06:30.461Z,101218.66
2023-02-28T06:08:58.237Z,101218.22
2023-02-28T06:11:28.866Z,101208.94
2023-02-28T06:14:01.500Z,101211.53
2023-02-28T06:16:31.190Z,101217.41
2023-02-28T06:19:04.430Z,101214.16
2023-02-28T06:21:32.342Z,101216.59
2023-02-28T06:23:59.859Z,101215.53
2023-02-28T06:26:26.916Z,101208.75
2023-02-28T06:28:54.562Z,101210.19
2023-02-28T06:31:23.062Z,101205.13
2023-02-28T06:33:51.099Z,101214.69
2023-02-28T06:36:18.874Z,101211.06
2023-02-28T06:38:46.032Z,101217.94
2023-02-28T06:41:12.972Z,101219.25
2023-02-28T06:43:43.223Z,101216.66
2023-02-28T06:46:14.491Z,101225.28
2023-02-28T06:48:43.522Z,101225.97
2023-02-28T06:51:17.590Z,101233.16
2023-02-28T06:53:44.984Z,101234.94
2023-02-28T06:56:14.786Z,101229.38
2023-02-28T06:58:42.048Z,101232.13
2023-02-28T07:01:09.922Z,101231.09
2023-02-28T07:03:37.721Z,101230.97
2023-02-28T07:06:06.440Z,101239.59
2023-02-28T07:08:35.024Z,101246.63
2023-02-28T07:11:02.019Z,101245.63
2023-02-28T07:13:29.063Z,101237.03
2023-02-28T07:16:02.967Z,101242.44
2023-02-28T07:18:30.429Z,101248.34
2023-02-28T07:20:57.774Z,101244.69
2023-02-28T07:23:25.239Z,101250.41
2023-02-28T07:25:53.037Z,101254.31
2023-02-28T07:28:19.996Z,101256.13
2023-02-28T07:30:47.136Z,101256.66
2023-02-28T07:33:14.077Z,101256.78
2023-02-28T07:35:41.533Z,101256.59
2023-02-28T07:38:08.868Z,101254.63
2023-02-28T07:40:37.702Z,101252.75
2023-02-28T07:43:04.963Z,101255.28
2023-02-28T07:45:35.294Z,101256.94
2023-02-28T07:48:02.648Z,101251.28
2023-02-28T07:50:32.698Z,101233.00
2023-02-28T07:53:00.601Z,101222.25
2023-02-28T07:55:28.219Z,101205.06
2023-02-28T07:57:55.407Z,101201.94
2023-02-28T08:00:23.041Z,101205.72
2023-02-28T08:02:50.153Z,101203.09
2023-02-28T08:05:18.832Z,101198.06
2023-02-28T08:07:48.597Z,101203.94
2023-02-28T08:10:15.955Z,101200.72
2023-02-28T08:12:42.899Z,101208.56
2023-02-28T08:15:10.348Z,101191.59
2023-02-28T08:17:37.266Z,101195.94
2023-02-28T08:20:05.194Z,101196.84
2023-02-28T08:22:32.216Z,101192.25
2023-02-28T08:24:59.219Z,101190.44
2023-02-28T08:27:26.256Z,101179.00
2023-02-28T08:29:53.416Z,101196.28
2023-02-28T08:32:29.277Z,101179.91
2023-02-28T08:34:57.089Z,101173.44
2023-02-28T08:37:24.323Z,101194.75
2023-02-28T08:39:52.747Z,101195.25
2023-02-28T08:42:21.237Z,101201.09
2023-02-28T08:44:48.144Z,101186.78
2023-02-28T08:47:15.537Z,101191.84
2023-02-28T08:49:42.468Z,101189.94
2023-02-28T08:52:09.644Z,101190.94
2023-02-28T08:54:37.196Z,101180.06
2023-02-28T08:57:04.916Z,101178.28
2023-02-28T08:59:31.872Z,101172.84
2023-02-28T09:01:58.887Z,101178.38
2023-02-28T09:04:26.210Z,101166.44
2023-02-28T09:06:53.348Z,101175.16
2023-02-28T09:09:20.375Z,101164.88
2023-02-28T09:11:47.446Z,101165.72
2023-02-28T09:14:14.396Z,101167.38
2023-02-28T09:16:41.510Z,101151.25
2023-02-28T09:19:13.076Z,101154.97
2023-02-28T09:21:40.236Z,101146.88
2023-02-28T09:24:08.112Z,101143.44
2023-02-28T09:26:42.685Z,101142.44
2023-02-28T09:29:15.515Z,101148.47
2023-02-28T09:31:42.570Z,101151.03
2023-02-28T09:34:09.804Z,101147.09
2023-02-28T09:36:45.189Z,101149.22
2023-02-28T09:39:15.458Z,101133.06
2023-02-28T09:41:51.444Z,101141.53
2023-02-28T09:44:33.926Z,101134.38
2023-02-28T09:47:30.134Z,101135.94
2023-02-28T09:50:04.402Z,101133.44
2023-02-28T09:52:33.478Z,101122.41
2023-02-28T09:55:46.244Z,101115.25
2023-02-28T09:58:33.272Z,101113.81
2023-02-28T10:01:11.794Z,101107.44
2023-02-28T10:03:50.925Z,101117.44
2023-02-28T10:06:21.818Z,101105.19
2023-02-28T10:09:10.256Z,101112.16
2023-02-28T10:11:39.452Z,101103.38
2023-02-28T10:14:15.327Z,101105.72
2023-02-28T10:16:48.902Z,101101.91
2023-02-28T10:20:09.038Z,101103.97
2023-02-28T10:22:43.911Z,101103.94
2023-02-28T10:25:39.099Z,101109.50
2023-02-28T10:28:08.963Z,101107.38
2023-02-28T10:30:43.848Z,101083.34
2023-02-28T10:33:33.234Z,101077.72
2023-02-28T10:36:00.766Z,101081.50
2023-02-28T10:38:37.667Z,101079.38
2023-02-28T10:41:30.507Z,101090.88
2023-02-28T10:44:22.768Z,101082.59
2023-02-28T10:46:52.271Z,101078.28
2023-02-28T10:49:25.647Z,101073.56
2023-02-28T10:51:59.175Z,101075.28
2023-02-28T10:54:36.406Z,101071.31
2023-02-28T10:57:22.115Z,101075.91
2023-02-28T10:59:55.976Z,101079.13
2023-02-28T11:05:33.573Z,101084.13
2023-02-28T11:08:18.519Z,101080.16
2023-02-28T11:10:49.669Z,101077.31
2023-02-28T11:13:23.997Z,101074.50
2023-02-28T11:15:55.678Z,101068.53
2023-02-28T11:18:40.397Z,101068.69
2023-02-28T11:21:08.819Z,101050.31
2023-02-28T11:23:38.202Z,101056.72
2023-02-28T11:26:06.065Z,101049.59
2023-02-28T11:28:42.414Z,101047.63
2023-02-28T11:31:16.818Z,101046.91
2023-02-28T11:33:53.517Z,101049.97
2023-02-28T11:36:30.689Z,101033.53
2023-02-28T11:39:05.188Z,101034.06
2023-02-28T11:41:52.426Z,101025.06
2023-02-28T11:44:34.336Z,101019.94
2023-02-28T11:47:13.950Z,101009.78
2023-02-28T11:50:17.658Z,101024.91
2023-02-28T11:53:14.760Z,101029.72
2023-02-28T11:56:45.826Z,101027.75
2023-02-28T11:59:52.698Z,101019.44
2023-02-28T12:02:35.039Z,101021.50
2023-02-28T12:05:30.743Z,101030.34
2023-02-28T12:08:23.927Z,101015.22
2023-02-28T12:11:20.809Z,101014.84
2023-02-28T12:13:56.455Z,101010.16
2023-02-28T12:16:29.224Z,101006.91
2023-02-28T12:19:26.609Z,101003.09
2023-02-28T12:22:22.196Z,101011.03
2023-02-28T12:25:06.368Z,101004.81
2023-02-28T12:27:38.963Z,101003.16
2023-02-28T12:30:29.474Z,101007.59
2023-02-28T12:33:15.406Z,101001.78
2023-02-28T12:35:50.912Z,100990.72
2023-02-28T12:38:27.174Z,100983.06
2023-02-28T12:41:17.846Z,100979.97
2023-02-28T12:43:50.841Z,100990.84
2023-02-28T12:46:38.360Z,100985.41
2023-02-28T12:49:34.253Z,100988.91
2023-02-28T12:52:03.404Z,100967.13
2023-02-28T12:54:58.368Z,100978.00
2023-02-28T12:57:42.761Z,100964.25
2023-02-28T13:00:23.130Z,100965.03
2023-02-28T13:03:20.383Z,100977.69
2023-02-28T13:06:14.952Z,100962.13
2023-02-28T13:09:03.958Z,100962.41
2023-02-28T13:11:47.501Z,100979.94
2023-02-28T13:14:38.637Z,100961.41
2023-02-28T13:17:11.123Z,100964.25
2023-02-28T13:19:55.571Z,100970.78
2023-02-28T13:22:46.734Z,100969.25
2023-02-28T13:25:35.415Z,100977.72
2023-02-28T13:28:12.933Z,100964.63
2023-02-28T13:30:52.648Z,100979.84
2023-02-28T13:33:29.863Z,100973.78
2023-02-28T13:36:19.567Z,100972.44
2023-02-28T13:39:05.134Z,100960.75
2023-02-28T13:41:32.275Z,100965.31
2023-02-28T13:44:07.899Z,100952.06
2023-02-28T13:46:49.970Z,100957.53
2023-02-28T13:49:31.003Z,100959.97
2023-02-28T13:52:20.403Z,100950.03
2023-02-28T13:55:05.929Z,100963.22
2023-02-28T13:58:00.425Z,100951.84
2023-02-28T14:00:43.030Z,100963.47
2023-02-28T14:03:44.129Z,100960.00
2023-02-28T14:06:24.777Z,100958.06
2023-02-28T14:09:17.196Z,100959.63
2023-02-28T14:11:46.981Z,100955.31
2023-02-28T14:14:35.878Z,100960.16
2023-02-28T14:17:06.962Z,100965.72
2023-02-28T14:19:38.064Z,100955.69
2023-02-28T14:22:38.729Z,100950.25
2023-02-28T14:26:18.636Z,100956.59
2023-02-28T14:29:16.386Z,100979.13
2023-02-28T14:32:03.579Z,100964.97
2023-02-28T14:37:40.266Z,100964.59
2023-02-28T14:40:19.763Z,100957.69
2023-02-28T14:43:02.373Z,100957.88
2023-02-28T14:45:35.933Z,100958.59
2023-02-28T14:48:05.314Z,100958.81
2023-02-28T14:50:38.227Z,100965.69
2023-02-28T14:53:07.805Z,100955.94
2023-02-28T14:55:38.284Z,100954.81
2023-02-28T14:58:18.862Z,100943.19
2023-02-28T15:00:52.078Z,100951.66
2023-02-28T15:03:39.600Z,100940.22
2023-02-28T15:06:18.436Z,100943.03
2023-02-28T15:08:46.840Z,100947.94
2023-02-28T15:11:20.191Z,100937.34
2023-02-28T15:13:52.661Z,100947.25
2023-02-28T15:16:36.973Z,100951.44
2023-02-28T15:19:14.030Z,100946.34
2023-02-28T15:21:46.668Z,100955.94
2023-02-28T15:24:28.832Z,100954.28
2023-02-28T15:27:00.783Z,100951.69
2023-02-28T15:29:30.532Z,100945.38
2023-02-28T15:32:06.406Z,100955.78
2023-02-28T15:34:44.404Z,100946.84
2023-02-28T15:37:33.540Z,100946.44
2023-02-28T15:40:29.405Z,100951.34
2023-02-28T15:43:31.039Z,100946.75
2023-02-28T15:46:08.548Z,100949.69
2023-02-28T15:48:52.948Z,100950.63
2023-02-28T15:51:23.804Z,100952.19
2023-02-28T15:54:03.585Z,100953.44
2023-02-28T15:56:40.310Z,100955.09
2023-02-28T15:59:15.148Z,100951.88
2023-02-28T16:01:42.134Z,100958.41
2023-02-28T16:04:20.714Z,100963.75
2023-02-28T16:07:06.159Z,100961.03
2023-02-28T16:09:35.237Z,100967.28
2023-02-28T16:12:04.231Z,100962.69
2023-02-28T16:14:31.958Z,100974.31
2023-02-28T16:17:06.551Z,100983.38
2023-02-28T16:19:34.842Z,100979.19
2023-02-28T16:22:02.474Z,100981.03
2023-02-28T16:24:29.512Z,100986.50
2023-02-28T16:26:57.902Z,100990.66
2023-02-28T16:29:34.812Z,100986.19
2023-02-28T16:32:05.624Z,100997.59
2023-02-28T16:34:32.646Z,100998.91
2023-02-28T16:37:00.932Z,100995.88
2023-02-28T16:39:30.143Z,101003.19
2023-02-28T16:41:57.292Z,101006.84
2023-02-28T16:44:36.306Z,101017.28
2023-02-28T16:47:05.130Z,101024.59
2023-02-28T16:49:32.178Z,101021.50
2023-02-28T16:51:59.172Z,101039.09
2023-02-28T16:54:26.276Z,101047.47
2023-02-28T16:56:53.538Z,101054.56
2023-02-28T16:59:27.596Z,101055.25
2023-02-28T17:01:57.844Z,101058.16
2023-02-28T17:04:27.117Z,101058.13
2023-02-28T17:06:54.389Z,101057.50
2023-02-28T17:09:26.292Z,101055.84
2023-02-28T17:11:55.688Z,101060.97
2023-02-28T17:14:24.346Z,101065.16
2023-02-28T17:16:51.288Z,101073.97
2023-02-28T17:19:18.666Z,101080.78
2023-02-28T17:21:47.007Z,101077.78
2023-02-28T17:24:16.448Z,101074.56
2023-02-28T17:26:46.614Z,101092.63
2023-02-28T17:29:21.257Z,101093.00
2023-02-28T17:31:48.974Z,101102.13
2023-02-28T17:34:19.323Z,101105.97
2023-02-28T17:36:48.973Z,101104.69
2023-02-28T17:39:25.109Z,101114.19
2023-02-28T17:41:56.605Z,101114.69
2023-02-28T17:44:25.988Z,101121.50
2023-02-28T17:46:55.788Z,101118.44
2023-02-28T17:49:23.175Z,101121.16
2023-02-28T17:51:51.433Z,101126.69
2023-02-28T17:54:19.301Z,101129.00
2023-02-28T17:56:46.988Z,101123.22
2023-02-28T17:59:14.123Z,101121.69
2023-02-28T18:01:41.304Z,101133.69
2023-02-28T18:04:09.275Z,101133.91
2023-02-28T18:06:48.401Z,101134.75
2023-02-28T18:09:18.037Z,101130.97
2023-02-28T18:11:49.088Z,101135.34
2023-02-28T18:14:18.027Z,101138.91
2023-02-28T18:16:46.276Z,101135.28
2023-02-28T18:19:17.617Z,101134.66
2023-02-28T18:21:48.765Z,101132.94
2023-02-28T18:24:18.018Z,101141.03
2023-02-28T18:26:45.122Z,101143.31
2023-02-28T18:29:23.276Z,101140.94
2023-02-28T18:31:50.807Z,101143.34
2023-02-28T18:34:18.121Z,101152.84
2023-02-28T18:36:47.178Z,101150.91
2023-02-28T18:39:15.689Z,101147.34
2023-02-28T18:41:42.621Z,101152.28
2023-02-28T18:44:18.980Z,101156.13
2023-02-28T18:46:46.721Z,101161.84
2023-02-28T18:49:15.792Z,101165.03
2023-02-28T18:51:45.338Z,101163.22
2023-02-28T18:54:14.894Z,101166.56
2023-02-28T18:56:42.277Z,101161.63
2023-02-28T18:59:09.425Z,101162.66
2023-02-28T19:01:36.486Z,101157.16
2023-02-28T19:04:04.854Z,101165.75
2023-02-28T19:06:33.764Z,101165.38
2023-02-28T19:09:03.990Z,101175.81
2023-02-28T19:11:31.858Z,101189.88
2023-02-28T19:13:59.117Z,101175.34
2023-02-28T19:16:27.917Z,101180.22
2023-02-28T19:18:55.604Z,101183.22
2023-02-28T19:21:24.912Z,101189.06
2023-02-28T19:23:52.454Z,101190.28
2023-02-28T19:26:24.825Z,101198.81
2023-02-28T19:28:51.919Z,101197.63
2023-02-28T19:31:25.100Z,101196.31
2023-02-28T19:33:53.255Z,101189.84
2023-02-28T19:36:21.450Z,101185.88
2023-02-28T19:38:49.135Z,101196.97
2023-02-28T19:41:18.204Z,101195.25
2023-02-28T19:43:45.792Z,101193.34
2023-02-28T19:46:13.733Z,101186.13
2023-02-28T19:48:42.753Z,101192.59
2023-02-28T19:51:12.578Z,101180.97
2023-02-28T19:53:41.958Z,101175.69
2023-02-28T19:56:10.159Z,101177.66
2023-02-28T19:58:37.871Z,101180.81
2023-02-28T20:01:19.553Z,101178.72
2023-02-28T20:03:51.078Z,101182.91
2023-02-28T20:06:18.676Z,101190.38
2023-02-28T20:08:45.616Z,101186.78
2023-02-28T20:11:16.097Z,101180.75
2023-02-28T20:13:44.073Z,101178.97
2023-02-28T20:16:13.791Z,101181.97
2023-02-28T20:18:41.885Z,101191.91
2023-02-28T20:21:10.570Z,101187.69
2023-02-28T20:23:41.755Z,101190.69
2023-02-28T20:26:09.842Z,101195.59
2023-02-28T20:28:37.717Z,101189.22
2023-02-28T20:31:16.526Z,101189.47
2023-02-28T20:33:46.693Z,101186.78
2023-02-28T20:36:15.685Z,101183.69
2023-02-28T20:38:43.518Z,101190.47
2023-02-28T20:41:10.528Z,101187.13
2023-02-28T20:43:40.526Z,101191.19
2023-02-28T20:46:08.113Z,101187.31
2023-02-28T20:48:36.434Z,101195.63
2023-02-28T20:51:05.428Z,101188.81
2023-02-28T20:53:34.841Z,101185.91
2023-02-28T20:56:04.525Z,101187.31
2023-02-28T20:58:37.638Z,101191.13
2023-02-28T21:01:18.484Z,101199.72
2023-02-28T21:03:48.913Z,101193.19
2023-02-28T21:06:18.258Z,101178.19
2023-02-28T21:08:45.528Z,101189.63
2023-02-28T21:11:31.883Z,101180.34
2023-02-28T21:14:02.198Z,101187.50
2023-02-28T21:16:29.938Z,101185.88
2023-02-28T21:19:04.009Z,101190.56
2023-02-28T21:21:43.936Z,101195.84
2023-02-28T21:24:19.427Z,101190.41
2023-02-28T21:26:47.664Z,101196.09
2023-02-28T21:29:15.610Z,101202.41
2023-02-28T21:31:42.992Z,101206.91
2023-02-28T21:34:12.444Z,101199.50
2023-02-28T21:36:45.709Z,101212.56
2023-02-28T21:39:30.094Z,101212.44
2023-02-28T21:42:03.356Z,101215.34
2023-02-28T21:44:32.038Z,101220.16
2023-02-28T21:47:02.012Z,101213.50
2023-02-28T21:49:29.662Z,101216.56
2023-02-28T21:51:57.528Z,101225.06
2023-02-28T21:54:25.937Z,101223.13
2023-02-28T21:56:53.082Z,101222.88
2023-02-28T21:59:20.306Z,101223.81
2023-02-28T22:01:51.118Z,101224.69
2023-02-28T22:04:22.114Z,101221.63
2023-02-28T22:06:56.106Z,101223.59
2023-02-28T22:09:23.572Z,101222.84
2023-02-28T22:11:50.654Z,101225.13
2023-02-28T22:14:18.025Z,101231.63
2023-02-28T22:16:52.002Z,101217.53
2023-02-28T22:19:21.248Z,101221.53
2023-02-28T22:21:48.717Z,101233.47
2023-02-28T22:24:17.675Z,101238.53
2023-02-28T22:26:44.992Z,101233.19
2023-02-28T22:29:14.198Z,101234.97
2023-02-28T22:31:41.255Z,101234.09
2023-02-28T22:34:11.536Z,101229.28
2023-02-28T22:36:43.825Z,101235.84
2023-02-28T22:39:12.065Z,101232.25
2023-02-28T22:41:39.439Z,101220.69
2023-02-28T22:44:07.315Z,101224.31
2023-02-28T22:46:35.885Z,101215.28
2023-02-28T22:49:04.917Z,101216.16
2023-02-28T22:51:32.611Z,101218.88
2023-02-28T22:53:59.703Z,101222.03
2023-02-28T22:56:29.455Z,101211.63
2023-02-28T22:58:59.509Z,101221.41
2023-02-28T23:01:30.578Z,101230.16
2023-02-28T23:03:58.380Z,101227.22
2023-02-28T23:06:35.333Z,101224.78
2023-02-28T23:09:06.816Z,101236.63
2023-02-28T23:11:42.195Z,101232.66
2023-02-28T23:14:12.651Z,101236.13
2023-02-28T23:16:50.001Z,101246.44
2023-02-28T23:19:29.535Z,101257.47
2023-02-28T23:21:58.524Z,101259.81
2023-02-28T23:24:27.957Z,101262.53
2023-02-28T23:26:57.808Z,101254.53
2023-02-28T23:29:25.852Z,101258.00
2023-02-28T23:31:54.018Z,101268.50
2023-02-28T23:34:30.267Z,101268.91
2023-02-28T23:37:00.292Z,101273.56
2023-02-28T23:39:29.628Z,101266.50
2023-02-28T23:41:57.372Z,101267.88
2023-02-28T23:44:25.731Z,101277.53
2023-02-28T23:46:53.435Z,101266.06
2023-02-28T23:49:21.805Z,101268.06
2023-02-28T23:51:50.778Z,101260.84
2023-02-28T23:54:18.892Z,101267.28
2023-02-28T23:56:46.106Z,101264.84
2023-02-28T23:59:13.156Z,101254.63
